KFNT

Bishop International Airport

Flint, Michigan, USA
METAR KFNT 231053Z 28008KT 10SM OVC095 04/03 A3003 RMK AO2 SLP173 T00440028
Observed Flight Rules
Oct-23 @ 10:53 UTC (57 minutes ago) Visual Flight Rules
Wind Visibility Clouds
280° at 8 knots 10 miles
  • Overcast at 9,500' AGL
Temperatures Readings
Current 4°C / 39°F
Dewpoint 3°C / 37°F
Humidity 93%
Altimeter 30.03" Hg
Pressure 1017.3 hPa
Elevation 233
METAR KFNT 231053Z 28008KT 10SM OVC095 04/03 A3003 RMK AO2 SLP173 T00440028
Observed Flight Rules
Oct-23 @ 10:53 UTC
(57 minutes ago)
VFR
Wind Visibility
280° at 8 knots 10 miles
Clouds
  • Overcast at 9,500' AGL
Temperature Dewpoint
4°C / 39°F 3°C / 37°F
Humidity Altimeter Pressure
93% 30.03" Hg 1017.3 hPa